Terminal Aerodrome Forecast
Issued by NWS La Crosse, WI

Home | Current Version | Previous Version | Text Only | Print | Product List | Glossary On
Versions: 1 2 3 4 5 6 7 8 9 10 11 12 13 14 15 16 17 18 19 20 21 22 23 24 25 26 27 28 29 30 31 32 33 34 35 36 37 38 39 40 41 42 43 44 45 46 47 48 49 50
000
FTUS43 KARX 060641 AAA
TAFRST
TAF AMD
KRST 060641Z 0607/0706 19013KT 4SM -SN OVC008
      TEMPO 0607/0609 1 1/2SM -SN BR OVC005
     FM060900 23013KT 5SM -SN OVC006
     FM061100 24013G20KT P6SM OVC015
     FM061400 24016G25KT P6SM BKN035
     FM062000 26018G26KT P6SM BKN025=

USA.gov is the U.S. government's official web portal to all federal, state and local government web resources and services.